Time;durP1;ratioP1;P1;durP2;ratioP2;P2;SDS_P1;SDS_P2;PMS_P1;PMS_P2;Temp;Humidity;BMP_temperature;BMP_pressure;BME280_temperature;BME280_humidity;BME280_pressure;Samples;Min_cycle;Max_cycle;Signal;HPM_P1;HPM_P2
2022/04/12 00:00:32;;;;;;;;;;;5.60;99.90;;;;;;5083418;28;19921;-68
2022/04/12 00:02:59;;;;;;;;;;;5.50;99.90;;;;;;5083391;28;19920;-68
2022/04/12 00:05:25;;;;;;;;;;;5.40;99.90;;;;;;5082756;28;19928;-68
2022/04/12 00:07:52;;;;;;;;;;;5.30;99.90;;;;;;5083197;28;20120;-68
2022/04/12 00:10:18;;;;;;;;;;;5.20;99.90;;;;;;5082963;28;20205;-68
2022/04/12 00:12:47;;;;;;;;;;;5.20;99.90;;;;;;5083230;28;19920;-68
2022/04/12 00:15:14;;;;;;;;;;;5.10;99.90;;;;;;5082749;28;20065;-68
2022/04/12 00:20:26;;;;;;;;;;;5.10;99.90;;;;;;5083195;28;19955;-68
2022/04/12 00:22:53;;;;;;;;;;;5.10;99.90;;;;;;5083188;28;19921;-68
2022/04/12 00:25:22;;;;;;;;;;;5.00;99.90;;;;;;5082667;28;19927;-68
2022/04/12 00:27:50;;;;;;;;;;;5.00;99.90;;;;;;5083149;28;19921;-68
2022/04/12 00:30:18;;;;;;;;;;;5.00;99.90;;;;;;5082952;28;19920;-68
2022/04/12 00:32:45;;;;;;;;;;;5.00;99.90;;;;;;5084711;28;19927;-68
2022/04/12 00:35:12;;;;;;;;;;;5.00;99.90;;;;;;5086775;28;20114;-68
2022/04/12 00:37:38;;;;;;;;;;;5.00;99.90;;;;;;5086816;28;19985;-69
2022/04/12 00:40:05;;;;;;;;;;;5.00;99.90;;;;;;5087021;28;19920;-67
2022/04/12 00:42:32;;;;;;;;;;;4.90;99.90;;;;;;5086763;28;19920;-68
2022/04/12 00:45:00;;;;;;;;;;;4.90;99.90;;;;;;5086869;28;19921;-68
2022/04/12 00:47:27;;;;;;;;;;;4.90;99.90;;;;;;5086540;28;19920;-68
2022/04/12 00:49:53;;;;;;;;;;;5.00;99.90;;;;;;5086977;28;19935;-68
2022/04/12 00:52:20;;;;;;;;;;;4.90;99.90;;;;;;5086675;28;19921;-68
2022/04/12 00:54:47;;;;;;;;;;;4.80;99.90;;;;;;5086597;28;20226;-68
2022/04/12 00:57:14;;;;;;;;;;;4.80;99.90;;;;;;5086019;28;19958;-68
2022/04/12 00:59:41;;;;;;;;;;;4.80;99.90;;;;;;5086500;28;19920;-68
2022/04/12 01:02:09;;;;;;;;;;;4.70;99.90;;;;;;5086311;28;19926;-68
2022/04/12 01:04:35;;;;;;;;;;;4.70;99.90;;;;;;5086633;28;19970;-69
2022/04/12 01:07:02;;;;;;;;;;;4.70;99.90;;;;;;5086231;28;19982;-68
2022/04/12 01:09:29;;;;;;;;;;;4.70;99.90;;;;;;5086248;28;20123;-68
2022/04/12 01:11:57;;;;;;;;;;;4.60;99.90;;;;;;5085927;28;19990;-68
2022/04/12 01:14:24;;;;;;;;;;;4.60;99.90;;;;;;5086184;28;20226;-68
2022/04/12 01:16:51;;;;;;;;;;;4.60;99.90;;;;;;5086350;28;19920;-68
2022/04/12 01:19:19;;;;;;;;;;;4.60;99.90;;;;;;5086030;28;19920;-69
2022/04/12 01:21:49;;;;;;;;;;;4.50;99.90;;;;;;5086288;28;20233;-68
2022/04/12 01:24:17;;;;;;;;;;;4.50;99.90;;;;;;5086090;28;19943;-68
2022/04/12 01:26:43;;;;;;;;;;;4.50;99.90;;;;;;5085767;28;20211;-68
2022/04/12 01:29:10;;;;;;;;;;;4.50;99.90;;;;;;5085719;28;19920;-68
2022/04/12 01:31:37;;;;;;;;;;;4.40;99.90;;;;;;5086005;28;19920;-68
2022/04/12 01:34:03;;;;;;;;;;;4.40;99.90;;;;;;5085807;28;20204;-68
2022/04/12 01:36:30;;;;;;;;;;;4.40;99.90;;;;;;5085641;28;19943;-68
2022/04/12 01:38:56;;;;;;;;;;;4.30;99.90;;;;;;5085877;28;19920;-68
2022/04/12 01:41:24;;;;;;;;;;;4.30;99.90;;;;;;5085653;28;19932;-68
2022/04/12 01:43:51;;;;;;;;;;;4.30;99.90;;;;;;5084945;28;19932;-68
2022/04/12 01:46:17;;;;;;;;;;;4.30;99.90;;;;;;5085578;28;19921;-68
2022/04/12 01:48:44;;;;;;;;;;;4.30;99.90;;;;;;5085637;28;19920;-69
2022/04/12 01:51:11;;;;;;;;;;;4.30;99.90;;;;;;5085723;28;19920;-68
2022/04/12 01:53:39;;;;;;;;;;;4.30;99.90;;;;;;5085167;28;19920;-68
2022/04/12 01:56:06;;;;;;;;;;;4.30;99.90;;;;;;5085174;28;19927;-68
2022/04/12 01:58:35;;;;;;;;;;;4.20;99.90;;;;;;5085207;28;19920;-68
2022/04/12 02:01:02;;;;;;;;;;;4.20;99.90;;;;;;5085544;28;19926;-68
2022/04/12 02:03:29;;;;;;;;;;;4.20;99.90;;;;;;5085313;28;20216;-68
2022/04/12 02:05:56;;;;;;;;;;;4.20;99.90;;;;;;5085140;28;19920;-68
2022/04/12 02:08:22;;;;;;;;;;;4.20;99.90;;;;;;5085215;28;19920;-69
2022/04/12 02:10:49;;;;;;;;;;;4.10;99.90;;;;;;5085244;28;20047;-68
2022/04/12 02:13:16;;;;;;;;;;;4.00;99.90;;;;;;5085352;28;19942;-68
2022/04/12 02:15:44;;;;;;;;;;;4.00;99.90;;;;;;5084948;28;20204;-68
2022/04/12 02:18:11;;;;;;;;;;;3.90;99.90;;;;;;5085480;28;19929;-69
2022/04/12 02:20:37;;;;;;;;;;;3.90;99.90;;;;;;5085662;28;19920;-68
2022/04/12 02:23:04;;;;;;;;;;;3.90;99.90;;;;;;5085442;28;19928;-68
2022/04/12 02:25:31;;;;;;;;;;;3.80;99.90;;;;;;5084621;28;19929;-68
2022/04/12 02:27:57;;;;;;;;;;;3.80;99.90;;;;;;5084906;28;19924;-69
2022/04/12 02:30:24;;;;;;;;;;;3.80;99.90;;;;;;5084942;28;19927;-68
2022/04/12 02:32:52;;;;;;;;;;;3.70;99.90;;;;;;5084603;28;19920;-68
2022/04/12 02:35:18;;;;;;;;;;;3.70;99.90;;;;;;5084434;28;20124;-68
2022/04/12 02:37:45;;;;;;;;;;;3.70;99.90;;;;;;5084561;28;19927;-68
2022/04/12 02:40:12;;;;;;;;;;;3.60;99.90;;;;;;5084261;28;20196;-68
2022/04/12 02:42:38;;;;;;;;;;;3.60;99.90;;;;;;5084658;28;19928;-68
2022/04/12 02:45:05;;;;;;;;;;;3.60;99.90;;;;;;5084240;28;19927;-68
2022/04/12 02:47:32;;;;;;;;;;;3.60;99.90;;;;;;5084446;28;19999;-68
2022/04/12 02:50:00;;;;;;;;;;;3.60;99.90;;;;;;5084411;28;19958;-68
2022/04/12 02:52:26;;;;;;;;;;;3.50;99.90;;;;;;5083900;28;19927;-67
2022/04/12 02:54:53;;;;;;;;;;;3.50;99.90;;;;;;5084175;28;19926;-68
2022/04/12 02:57:20;;;;;;;;;;;3.50;99.90;;;;;;5083140;28;20246;-69
2022/04/12 02:59:46;;;;;;;;;;;3.50;99.90;;;;;;5084693;28;19920;-68
2022/04/12 03:02:13;;;;;;;;;;;3.40;99.90;;;;;;5084077;28;19921;-67
2022/04/12 03:04:40;;;;;;;;;;;3.40;99.90;;;;;;5084275;28;20103;-68
2022/04/12 03:07:09;;;;;;;;;;;3.40;99.90;;;;;;5083915;28;19966;-68
2022/04/12 03:09:35;;;;;;;;;;;3.40;99.90;;;;;;5084100;28;20154;-68
2022/04/12 03:12:02;;;;;;;;;;;3.40;99.90;;;;;;5083701;28;19920;-68
2022/04/12 03:14:29;;;;;;;;;;;3.40;99.90;;;;;;5084029;28;19924;-68
2022/04/12 03:16:55;;;;;;;;;;;3.40;99.90;;;;;;5083775;28;19920;-68
2022/04/12 03:19:22;;;;;;;;;;;3.30;99.90;;;;;;5083760;28;19920;-70
2022/04/12 03:21:49;;;;;;;;;;;3.30;99.90;;;;;;5083651;28;19921;-68
2022/04/12 03:24:17;;;;;;;;;;;3.30;99.90;;;;;;5083850;28;19927;-68
2022/04/12 03:26:43;;;;;;;;;;;3.30;99.90;;;;;;5083554;28;19920;-68
2022/04/12 03:29:10;;;;;;;;;;;3.30;99.90;;;;;;5083746;28;19920;-68
2022/04/12 03:31:37;;;;;;;;;;;3.20;99.90;;;;;;5083633;28;19924;-68
2022/04/12 03:34:03;;;;;;;;;;;3.20;99.90;;;;;;5083310;28;19920;-68
2022/04/12 03:36:30;;;;;;;;;;;3.20;99.90;;;;;;5083288;28;19924;-68
2022/04/12 03:38:57;;;;;;;;;;;3.20;99.90;;;;;;5083729;28;19927;-68
2022/04/12 03:41:25;;;;;;;;;;;3.10;99.90;;;;;;5083814;28;19920;-68
2022/04/12 03:43:51;;;;;;;;;;;3.10;99.90;;;;;;5083612;28;19920;-68
2022/04/12 03:46:18;;;;;;;;;;;3.10;99.90;;;;;;5083204;28;19994;-68
2022/04/12 03:48:45;;;;;;;;;;;3.10;99.90;;;;;;5083377;28;19921;-68
2022/04/12 03:51:12;;;;;;;;;;;3.00;99.90;;;;;;5083473;28;19974;-68
2022/04/12 03:53:38;;;;;;;;;;;3.00;99.90;;;;;;5083299;28;19927;-68
2022/04/12 03:56:07;;;;;;;;;;;2.90;99.90;;;;;;5083003;28;19920;-68
2022/04/12 03:58:35;;;;;;;;;;;3.00;99.90;;;;;;5083382;28;19927;-68
2022/04/12 04:01:02;;;;;;;;;;;2.90;99.90;;;;;;5083091;28;19927;-68
2022/04/12 04:03:29;;;;;;;;;;;2.90;99.90;;;;;;5082294;28;19982;-66
2022/04/12 04:05:55;;;;;;;;;;;2.90;99.90;;;;;;5083083;28;19920;-68
2022/04/12 04:08:22;;;;;;;;;;;2.90;99.90;;;;;;5082947;28;19927;-68
2022/04/12 04:10:49;;;;;;;;;;;2.90;99.90;;;;;;5083159;28;19971;-67
2022/04/12 04:13:17;;;;;;;;;;;2.90;99.90;;;;;;5083152;28;19926;-68
2022/04/12 04:15:46;;;;;;;;;;;2.90;99.90;;;;;;5082348;28;19921;-68
2022/04/12 04:18:13;;;;;;;;;;;2.90;99.90;;;;;;5082481;28;19966;-68
2022/04/12 04:20:39;;;;;;;;;;;2.90;99.90;;;;;;5081899;28;19928;-68
2022/04/12 04:23:06;;;;;;;;;;;2.90;99.90;;;;;;5083245;28;19920;-69
2022/04/12 04:25:33;;;;;;;;;;;2.90;99.90;;;;;;5082969;28;19920;-68
2022/04/12 04:27:59;;;;;;;;;;;2.90;99.90;;;;;;5083118;28;20116;-68
2022/04/12 04:30:26;;;;;;;;;;;2.90;99.90;;;;;;5082677;28;19924;-68
2022/04/12 04:32:54;;;;;;;;;;;2.90;99.90;;;;;;5082680;28;19926;-68
2022/04/12 04:35:20;;;;;;;;;;;2.80;99.90;;;;;;5082845;28;20115;-68
2022/04/12 04:37:48;;;;;;;;;;;2.80;99.90;;;;;;5082954;28;19920;-68
2022/04/12 04:40:15;;;;;;;;;;;2.80;99.90;;;;;;5082685;28;19920;-68
2022/04/12 04:42:44;;;;;;;;;;;2.70;99.90;;;;;;5082728;28;19921;-68
2022/04/12 04:45:11;;;;;;;;;;;2.70;99.90;;;;;;5082645;28;20115;-68
2022/04/12 04:47:47;;;;;;;;;;;2.70;99.90;;;;;;5082715;28;20101;-68
2022/04/12 04:50:15;;;;;;;;;;;2.70;99.90;;;;;;5082602;28;19935;-68
2022/04/12 04:52:42;;;;;;;;;;;2.70;99.90;;;;;;5082670;28;20226;-68
2022/04/12 04:55:09;;;;;;;;;;;2.70;99.90;;;;;;5082599;28;19931;-67
2022/04/12 04:57:38;;;;;;;;;;;2.70;99.90;;;;;;5082760;28;20181;-68
2022/04/12 05:00:05;;;;;;;;;;;2.80;99.90;;;;;;5082454;28;20215;-68
2022/04/12 05:02:33;;;;;;;;;;;2.80;99.90;;;;;;5082578;28;19921;-68
2022/04/12 05:04:59;;;;;;;;;;;2.90;99.90;;;;;;5082582;28;19920;-69
2022/04/12 05:07:27;;;;;;;;;;;2.80;99.90;;;;;;5082787;28;19927;-69
2022/04/12 05:09:54;;;;;;;;;;;2.90;99.90;;;;;;5082399;28;19952;-69
2022/04/12 05:12:21;;;;;;;;;;;2.80;99.90;;;;;;5082758;28;19928;-69
2022/04/12 05:14:47;;;;;;;;;;;2.90;99.90;;;;;;5082563;28;19920;-69
2022/04/12 05:17:23;;;;;;;;;;;2.90;99.90;;;;;;5082488;28;19920;-69
2022/04/12 05:19:49;;;;;;;;;;;2.90;99.90;;;;;;5084063;28;19924;-69
2022/04/12 05:22:16;;;;;;;;;;;3.00;99.90;;;;;;5086216;28;19984;-69
2022/04/12 05:24:44;;;;;;;;;;;3.00;99.90;;;;;;5086015;28;19928;-69
2022/04/12 05:27:10;;;;;;;;;;;3.10;99.90;;;;;;5085793;28;20204;-69
2022/04/12 05:29:37;;;;;;;;;;;3.10;99.90;;;;;;5086277;28;19920;-69
2022/04/12 05:32:04;;;;;;;;;;;3.20;99.90;;;;;;5086013;28;19921;-69
2022/04/12 05:34:31;;;;;;;;;;;3.20;99.90;;;;;;5086256;28;19927;-70
2022/04/12 05:36:57;;;;;;;;;;;3.30;99.90;;;;;;5085667;28;19920;-69
2022/04/12 05:39:24;;;;;;;;;;;3.40;99.90;;;;;;5085941;28;20212;-69
2022/04/12 05:41:52;;;;;;;;;;;3.40;99.90;;;;;;5085564;28;20361;-70
2022/04/12 05:44:18;;;;;;;;;;;3.50;99.90;;;;;;5086112;28;20154;-69
2022/04/12 05:46:45;;;;;;;;;;;3.50;99.90;;;;;;5085844;28;20103;-70
2022/04/12 05:49:11;;;;;;;;;;;3.60;99.90;;;;;;5085928;28;19920;-68
2022/04/12 05:51:38;;;;;;;;;;;3.60;99.90;;;;;;5085565;28;19959;-68
2022/04/12 05:54:05;;;;;;;;;;;3.60;99.90;;;;;;5085803;28;19920;-69
2022/04/12 05:56:31;;;;;;;;;;;3.70;99.90;;;;;;5085698;28;19926;-69
2022/04/12 05:58:59;;;;;;;;;;;3.70;99.90;;;;;;5085620;28;19921;-70
2022/04/12 06:01:26;;;;;;;;;;;3.80;99.90;;;;;;5085846;28;19926;-70
2022/04/12 06:03:52;;;;;;;;;;;3.90;99.90;;;;;;5085477;28;19920;-70
2022/04/12 06:06:19;;;;;;;;;;;4.00;99.90;;;;;;5084987;28;20227;-68
2022/04/12 06:08:45;;;;;;;;;;;4.00;99.90;;;;;;5085169;28;19921;-70
2022/04/12 06:11:12;;;;;;;;;;;4.00;99.90;;;;;;5085103;28;20123;-68
2022/04/12 06:13:39;;;;;;;;;;;4.10;99.90;;;;;;5085356;28;19920;-70
2022/04/12 06:16:06;;;;;;;;;;;4.10;99.90;;;;;;5085093;28;19921;-70
2022/04/12 06:18:33;;;;;;;;;;;4.10;99.90;;;;;;5085379;28;19927;-70
2022/04/12 06:21:00;;;;;;;;;;;4.20;99.90;;;;;;5083977;28;19928;-70
2022/04/12 06:23:28;;;;;;;;;;;4.30;99.90;;;;;;5084953;28;20138;-70
2022/04/12 06:25:54;;;;;;;;;;;4.40;99.90;;;;;;5084931;28;19962;-70
2022/04/12 06:28:21;;;;;;;;;;;4.50;99.90;;;;;;5084755;28;19920;-70
2022/04/12 06:30:48;;;;;;;;;;;4.60;99.90;;;;;;5081807;28;20124;-69
2022/04/12 06:33:16;;;;;;;;;;;4.70;99.90;;;;;;5083607;28;19983;-70
2022/04/12 06:35:43;;;;;;;;;;;4.80;99.90;;;;;;5082770;28;19921;-70
2022/04/12 06:38:10;;;;;;;;;;;4.90;99.90;;;;;;5084070;28;19921;-70
2022/04/12 06:40:36;;;;;;;;;;;5.00;99.90;;;;;;5084565;28;19982;-70
2022/04/12 06:43:03;;;;;;;;;;;5.10;99.90;;;;;;5084771;28;19943;-70
2022/04/12 06:45:30;;;;;;;;;;;5.10;99.90;;;;;;5084081;28;19927;-70
2022/04/12 06:47:58;;;;;;;;;;;5.20;99.90;;;;;;5084975;28;20242;-70
2022/04/12 06:50:26;;;;;;;;;;;5.30;99.90;;;;;;5084469;28;19927;-70
2022/04/12 06:52:53;;;;;;;;;;;5.40;99.90;;;;;;5084665;28;19920;-70
2022/04/12 06:55:21;;;;;;;;;;;5.50;99.90;;;;;;5083966;28;20165;-70
2022/04/12 06:57:48;;;;;;;;;;;5.60;99.90;;;;;;5084486;28;19927;-70
2022/04/12 07:00:16;;;;;;;;;;;5.80;99.90;;;;;;5084211;28;19927;-70
2022/04/12 07:02:43;;;;;;;;;;;5.90;99.90;;;;;;5084229;28;20093;-70
2022/04/12 07:05:10;;;;;;;;;;;6.00;99.90;;;;;;5083978;28;20131;-70
2022/04/12 07:07:38;;;;;;;;;;;6.00;99.90;;;;;;5084066;28;19955;-70
2022/04/12 07:10:06;;;;;;;;;;;6.10;99.90;;;;;;5077241;28;19920;-70
2022/04/12 07:12:32;;;;;;;;;;;6.20;99.90;;;;;;5084199;28;20110;-70
2022/04/12 07:14:59;;;;;;;;;;;6.30;99.90;;;;;;5083511;28;19920;-70
2022/04/12 07:17:25;;;;;;;;;;;6.40;99.90;;;;;;5073121;28;19920;-70
2022/04/12 07:19:52;;;;;;;;;;;6.50;99.90;;;;;;5074707;28;19994;-70
2022/04/12 07:22:19;;;;;;;;;;;6.60;99.90;;;;;;5083077;28;20227;-70
2022/04/12 07:24:47;;;;;;;;;;;6.80;99.90;;;;;;5083459;28;19927;-70
2022/04/12 07:27:13;;;;;;;;;;;6.90;99.90;;;;;;5063099;28;19921;-70
2022/04/12 07:29:40;;;;;;;;;;;7.00;99.90;;;;;;5071996;28;19927;-70
2022/04/12 07:32:07;;;;;;;;;;;7.20;99.90;;;;;;5084004;28;19920;-70
2022/04/12 07:34:33;;;;;;;;;;;7.30;99.90;;;;;;5083740;28;19920;-70
2022/04/12 07:37:00;;;;;;;;;;;7.40;99.90;;;;;;5083282;28;19983;-70
2022/04/12 07:39:26;;;;;;;;;;;7.60;99.90;;;;;;5083642;28;20234;-70
2022/04/12 07:41:54;;;;;;;;;;;7.70;99.90;;;;;;5082824;28;19920;-71
2022/04/12 07:44:22;;;;;;;;;;;7.90;99.90;;;;;;5083539;28;19920;-70
2022/04/12 07:46:49;;;;;;;;;;;8.00;99.90;;;;;;5083390;28;19920;-71
2022/04/12 07:49:15;;;;;;;;;;;8.20;99.90;;;;;;5083724;28;20115;-71
2022/04/12 07:51:42;;;;;;;;;;;8.30;99.90;;;;;;5083018;28;20136;-71
2022/04/12 07:54:09;;;;;;;;;;;8.40;99.90;;;;;;5083617;28;19921;-71
2022/04/12 07:56:35;;;;;;;;;;;8.60;99.90;;;;;;5083117;28;19927;-70
2022/04/12 07:59:03;;;;;;;;;;;8.70;99.90;;;;;;5082832;28;19948;-69
2022/04/12 08:01:34;;;;;;;;;;;8.80;99.90;;;;;;5079773;28;19932;-69
2022/04/12 08:04:01;;;;;;;;;;;9.00;99.90;;;;;;5076083;28;19927;-69
2022/04/12 08:06:27;;;;;;;;;;;9.10;99.90;;;;;;5082110;28;19924;-69
2022/04/12 08:08:54;;;;;;;;;;;9.30;99.90;;;;;;5082681;28;19920;-69
2022/04/12 08:11:20;;;;;;;;;;;9.40;99.90;;;;;;5067918;28;19927;-69
2022/04/12 08:13:47;;;;;;;;;;;9.50;99.90;;;;;;5082543;28;19920;-70
2022/04/12 08:16:15;;;;;;;;;;;9.60;99.90;;;;;;5082806;28;19924;-69
2022/04/12 08:18:42;;;;;;;;;;;9.70;99.90;;;;;;5082463;28;19932;-69
2022/04/12 08:21:09;;;;;;;;;;;9.80;99.90;;;;;;5086358;28;20255;-69
2022/04/12 08:23:35;;;;;;;;;;;9.90;99.90;;;;;;5088961;28;19929;-69
2022/04/12 08:26:02;;;;;;;;;;;10.00;99.90;;;;;;5087626;28;19920;-69
2022/04/12 08:28:29;;;;;;;;;;;10.20;99.90;;;;;;5088775;28;19979;-69
2022/04/12 08:30:55;;;;;;;;;;;10.30;99.90;;;;;;5093731;28;19926;-69
2022/04/12 08:33:23;;;;;;;;;;;10.40;99.90;;;;;;5095169;28;19928;-69
2022/04/12 08:35:50;;;;;;;;;;;10.40;99.90;;;;;;5079553;28;20324;-69
2022/04/12 08:38:16;;;;;;;;;;;10.60;99.90;;;;;;5082826;28;19920;-69
2022/04/12 08:40:43;;;;;;;;;;;10.70;99.90;;;;;;5082917;28;19921;-69
2022/04/12 08:43:15;;;;;;;;;;;10.80;99.90;;;;;;5082875;28;19920;-69
2022/04/12 08:45:45;;;;;;;;;;;11.00;99.90;;;;;;5082618;28;19927;-69
2022/04/12 08:48:12;;;;;;;;;;;11.10;99.90;;;;;;5082755;28;19943;-69
2022/04/12 08:50:40;;;;;;;;;;;11.20;99.90;;;;;;5083235;28;19920;-69
2022/04/12 08:53:09;;;;;;;;;;;11.40;99.90;;;;;;5082355;28;20124;-70
2022/04/12 08:55:36;;;;;;;;;;;11.40;99.90;;;;;;5085424;28;19921;-69
2022/04/12 08:58:02;;;;;;;;;;;11.50;99.90;;;;;;5086582;28;19970;-69
2022/04/12 09:00:29;;;;;;;;;;;11.60;99.90;;;;;;5086608;28;19924;-70
2022/04/12 09:02:59;;;;;;;;;;;11.70;99.90;;;;;;5078392;28;20216;-69
2022/04/12 09:05:25;;;;;;;;;;;11.80;99.90;;;;;;5081493;28;19924;-69
2022/04/12 09:07:53;;;;;;;;;;;11.80;99.90;;;;;;5091525;28;19920;-70
2022/04/12 09:10:25;;;;;;;;;;;11.90;99.90;;;;;;5085782;28;19929;-69
2022/04/12 09:12:52;;;;;;;;;;;12.00;99.90;;;;;;5078327;28;19920;-69
2022/04/12 09:15:22;;;;;;;;;;;12.30;99.90;;;;;;5085680;28;19921;-69
2022/04/12 09:17:49;;;;;;;;;;;12.40;99.90;;;;;;5086842;28;19920;-69
2022/04/12 09:20:17;;;;;;;;;;;12.50;99.90;;;;;;5085592;28;19952;-69
2022/04/12 09:22:43;;;;;;;;;;;12.60;99.90;;;;;;5095881;28;19920;-69
2022/04/12 09:25:13;;;;;;;;;;;12.80;99.90;;;;;;5085122;28;19920;-69
2022/04/12 09:27:44;;;;;;;;;;;12.90;99.90;;;;;;5084464;28;19984;-69
2022/04/12 09:30:11;;;;;;;;;;;13.00;99.90;;;;;;5085539;28;19927;-69
2022/04/12 09:32:39;;;;;;;;;;;13.10;99.90;;;;;;5088965;28;19921;-70
2022/04/12 09:35:06;;;;;;;;;;;13.20;99.90;;;;;;5082975;28;20219;-69
2022/04/12 09:37:34;;;;;;;;;;;13.30;99.90;;;;;;5080243;28;19920;-69
2022/04/12 09:40:04;;;;;;;;;;;13.60;99.90;;;;;;5079068;28;19920;-68
2022/04/12 09:42:39;;;;;;;;;;;13.80;99.90;;;;;;5085757;28;19943;-69
2022/04/12 09:45:11;;;;;;;;;;;13.90;99.90;;;;;;5085947;28;20234;-69
2022/04/12 09:47:38;;;;;;;;;;;14.00;99.90;;;;;;5080574;28;19952;-69
2022/04/12 09:50:06;;;;;;;;;;;14.10;99.90;;;;;;5065802;28;19921;-70
2022/04/12 09:52:32;;;;;;;;;;;14.20;99.90;;;;;;5077756;28;20150;-70
2022/04/12 09:55:00;;;;;;;;;;;14.30;99.90;;;;;;5085266;28;19934;-70
2022/04/12 09:57:26;;;;;;;;;;;14.40;99.90;;;;;;5085447;28;19920;-70
2022/04/12 09:59:56;;;;;;;;;;;14.50;99.90;;;;;;5085215;28;20223;-69
2022/04/12 10:02:23;;;;;;;;;;;14.70;99.90;;;;;;5087363;28;19999;-70
2022/04/12 10:04:51;;;;;;;;;;;14.70;99.90;;;;;;5090949;28;19927;-69
2022/04/12 10:07:18;;;;;;;;;;;14.80;99.90;;;;;;5094889;28;19920;-69
2022/04/12 10:09:45;;;;;;;;;;;14.90;99.90;;;;;;5094358;28;19927;-70
2022/04/12 10:12:13;;;;;;;;;;;15.00;99.90;;;;;;5092810;28;20126;-70
2022/04/12 10:14:40;;;;;;;;;;;15.10;99.90;;;;;;5091436;28;19921;-69
2022/04/12 10:17:08;;;;;;;;;;;15.20;99.90;;;;;;5091007;28;19921;-69
2022/04/12 10:19:35;;;;;;;;;;;15.30;99.90;;;;;;5092822;28;19927;-68
2022/04/12 10:22:02;;;;;;;;;;;15.40;99.90;;;;;;5096430;28;19927;-69
2022/04/12 10:24:29;;;;;;;;;;;15.50;99.90;;;;;;5098584;28;20101;-70
2022/04/12 10:26:56;;;;;;;;;;;15.60;99.90;;;;;;5095458;28;19920;-70
2022/04/12 10:29:23;;;;;;;;;;;15.70;99.90;;;;;;5092595;28;19943;-69
2022/04/12 10:31:54;;;;;;;;;;;15.80;99.90;;;;;;5087836;28;19933;-68
2022/04/12 10:34:22;;;;;;;;;;;15.90;99.90;;;;;;5093848;28;19920;-70
2022/04/12 10:37:05;;;;;;;;;;;15.90;99.90;;;;;;5091869;28;19926;-69
2022/04/12 10:39:33;;;;;;;;;;;16.00;99.90;;;;;;5092216;28;19951;-69
2022/04/12 10:42:02;;;;;;;;;;;16.10;99.90;;;;;;5097795;28;19920;-68
2022/04/12 10:44:35;;;;;;;;;;;16.10;99.90;;;;;;5089884;28;19920;-70
2022/04/12 10:47:02;;;;;;;;;;;16.10;99.90;;;;;;5095905;28;19940;-70
2022/04/12 10:49:35;;;;;;;;;;;16.30;99.90;;;;;;5096443;28;19932;-69
2022/04/12 10:52:01;;;;;;;;;;;16.30;99.90;;;;;;5095857;28;19926;-69
2022/04/12 10:54:29;;;;;;;;;;;16.30;99.90;;;;;;5096975;28;19940;-69
2022/04/12 10:57:11;;;;;;;;;;;16.40;99.90;;;;;;5095631;28;19920;-69
2022/04/12 10:59:41;;;;;;;;;;;16.50;99.90;;;;;;5090414;28;20092;-69
2022/04/12 11:02:11;;;;;;;;;;;16.70;99.90;;;;;;5094816;28;19920;-69
2022/04/12 11:04:39;;;;;;;;;;;16.80;99.90;;;;;;5087034;28;20208;-69
2022/04/12 11:07:07;;;;;;;;;;;17.10;99.90;;;;;;5088430;28;19920;-70
2022/04/12 11:09:33;;;;;;;;;;;17.20;99.90;;;;;;5086587;28;19928;-68
2022/04/12 11:12:01;;;;;;;;;;;17.50;99.90;;;;;;5088314;28;19920;-68
2022/04/12 11:14:32;;;;;;;;;;;17.70;99.90;;;;;;5100704;28;20739;-68
2022/04/12 11:17:00;;;;;;;;;;;17.90;99.90;;;;;;5090761;28;19928;-69
2022/04/12 11:19:26;;;;;;;;;;;17.90;99.90;;;;;;5101331;28;19920;-68
2022/04/12 11:21:58;;;;;;;;;;;18.00;99.90;;;;;;5103313;28;20226;-68
2022/04/12 11:24:25;;;;;;;;;;;18.10;99.90;;;;;;5083947;28;20119;-69
2022/04/12 11:27:01;;;;;;;;;;;18.10;99.90;;;;;;5083073;28;19927;-69
2022/04/12 11:29:29;;;;;;;;;;;18.10;99.90;;;;;;5083940;28;19927;-69
2022/04/12 11:31:56;;;;;;;;;;;18.30;99.90;;;;;;5084009;28;19979;-69
2022/04/12 11:34:24;;;;;;;;;;;18.30;99.90;;;;;;5063745;28;19920;-69
2022/04/12 11:36:52;;;;;;;;;;;18.60;99.90;;;;;;5072413;28;19920;-69
2022/04/12 11:39:20;;;;;;;;;;;18.80;99.90;;;;;;5083572;28;19927;-69
2022/04/12 11:41:48;;;;;;;;;;;19.00;99.90;;;;;;5082482;28;19947;-69
2022/04/12 11:44:15;;;;;;;;;;;19.10;99.90;;;;;;5083850;28;19984;-68
2022/04/12 11:46:42;;;;;;;;;;;19.10;99.90;;;;;;5083475;28;19943;-69
2022/04/12 11:49:09;;;;;;;;;;;19.20;99.90;;;;;;5083509;28;19944;-68
2022/04/12 11:51:40;;;;;;;;;;;19.40;99.00;;;;;;5090678;28;19926;-69
2022/04/12 11:54:24;;;;;;;;;;;19.50;99.90;;;;;;5094444;28;19920;-68
2022/04/12 11:56:58;;;;;;;;;;;19.60;98.70;;;;;;5063692;28;19922;-68
2022/04/12 11:59:25;;;;;;;;;;;19.60;99.20;;;;;;5063739;28;19920;-67
2022/04/12 12:01:53;;;;;;;;;;;19.70;99.90;;;;;;5063181;28;20151;-68
2022/04/12 12:04:20;;;;;;;;;;;19.90;99.60;;;;;;5068537;28;20359;-69
2022/04/12 12:06:54;;;;;;;;;;;20.00;98.30;;;;;;5063255;28;19920;-68
2022/04/12 12:09:21;;;;;;;;;;;20.10;97.50;;;;;;5075063;28;19935;-68
2022/04/12 12:11:49;;;;;;;;;;;20.30;98.70;;;;;;5083189;28;19927;-73
2022/04/12 12:14:15;;;;;;;;;;;20.40;97.00;;;;;;5083565;28;19924;-68
2022/04/12 12:16:42;;;;;;;;;;;20.60;96.20;;;;;;5082957;28;19930;-68
2022/04/12 12:19:14;;;;;;;;;;;20.80;96.50;;;;;;5082776;28;20094;-68
2022/04/12 12:21:44;;;;;;;;;;;20.90;96.40;;;;;;5081030;28;19955;-67
2022/04/12 12:24:10;;;;;;;;;;;20.80;94.60;;;;;;5079372;28;19920;-68
2022/04/12 12:26:37;;;;;;;;;;;20.80;94.30;;;;;;5079894;28;19921;-68
2022/04/12 12:29:08;;;;;;;;;;;20.80;94.40;;;;;;5086068;28;19952;-67
2022/04/12 12:31:41;;;;;;;;;;;20.60;94.00;;;;;;5087041;28;19927;-68
2022/04/12 12:34:08;;;;;;;;;;;20.60;95.00;;;;;;5081392;28;19927;-68
2022/04/12 12:36:34;;;;;;;;;;;20.60;94.00;;;;;;5086838;28;20119;-68
2022/04/12 12:39:06;;;;;;;;;;;20.60;93.90;;;;;;5083189;28;19921;-68
2022/04/12 12:41:33;;;;;;;;;;;20.50;93.60;;;;;;5073280;28;19992;-68
2022/04/12 12:44:01;;;;;;;;;;;20.70;95.00;;;;;;5082379;28;19920;-68
2022/04/12 12:46:32;;;;;;;;;;;20.90;94.50;;;;;;5086542;28;19921;-68
2022/04/12 12:49:08;;;;;;;;;;;21.10;94.10;;;;;;5087047;28;19920;-68
2022/04/12 12:51:35;;;;;;;;;;;21.20;93.80;;;;;;5086818;28;19921;-68
2022/04/12 12:54:02;;;;;;;;;;;21.40;93.20;;;;;;5086517;28;19920;-68
2022/04/12 12:56:32;;;;;;;;;;;21.50;91.80;;;;;;5086242;28;20239;-68
2022/04/12 12:59:17;;;;;;;;;;;21.40;91.20;;;;;;5075574;28;19921;-68
2022/04/12 13:01:46;;;;;;;;;;;21.30;92.40;;;;;;5086260;28;19920;-67
2022/04/12 13:04:20;;;;;;;;;;;21.50;91.70;;;;;;5086090;28;19927;-68
2022/04/12 13:06:46;;;;;;;;;;;21.70;91.50;;;;;;5086157;28;19927;-67
2022/04/12 13:09:13;;;;;;;;;;;21.70;91.40;;;;;;5086351;28;20196;-68
2022/04/12 13:11:40;;;;;;;;;;;21.80;91.10;;;;;;5070335;28;19920;-67
2022/04/12 13:14:06;;;;;;;;;;;21.80;91.10;;;;;;5086138;28;19920;-67
2022/04/12 13:16:33;;;;;;;;;;;21.70;90.90;;;;;;5086085;28;19943;-68
2022/04/12 13:19:04;;;;;;;;;;;21.80;91.80;;;;;;5086150;28;19936;-68
2022/04/12 13:21:30;;;;;;;;;;;22.00;91.90;;;;;;5086094;28;19927;-68
2022/04/12 13:23:57;;;;;;;;;;;22.20;90.00;;;;;;5086350;28;19926;-68
2022/04/12 13:26:23;;;;;;;;;;;22.30;91.00;;;;;;5086201;28;19936;-67
2022/04/12 13:28:50;;;;;;;;;;;22.50;90.30;;;;;;5086395;28;19920;-67
2022/04/12 13:31:17;;;;;;;;;;;22.30;89.80;;;;;;5086251;28;19927;-67
2022/04/12 13:33:43;;;;;;;;;;;22.10;89.40;;;;;;5086310;28;19987;-68
2022/04/12 13:36:11;;;;;;;;;;;22.10;88.40;;;;;;5085825;28;19920;-67
2022/04/12 13:38:38;;;;;;;;;;;22.00;90.10;;;;;;5086251;28;19927;-67
2022/04/12 13:41:04;;;;;;;;;;;22.10;90.20;;;;;;5084629;28;19920;-67
2022/04/12 13:43:31;;;;;;;;;;;22.20;90.30;;;;;;5085562;28;19920;-68
2022/04/12 13:45:57;;;;;;;;;;;22.30;88.10;;;;;;5085059;28;20204;-67
2022/04/12 13:48:24;;;;;;;;;;;22.20;87.10;;;;;;5085549;28;19974;-68
2022/04/12 13:50:51;;;;;;;;;;;22.10;87.10;;;;;;5085291;28;19921;-68
2022/04/12 13:53:19;;;;;;;;;;;22.00;86.80;;;;;;5085652;28;20230;-67
2022/04/12 13:55:45;;;;;;;;;;;21.80;87.30;;;;;;5085437;28;19920;-68
2022/04/12 13:58:12;;;;;;;;;;;21.60;86.30;;;;;;5085493;28;19924;-68
2022/04/12 14:00:40;;;;;;;;;;;21.40;86.40;;;;;;5085228;28;19935;-67
2022/04/12 14:03:07;;;;;;;;;;;21.40;87.50;;;;;;5084777;28;19958;-67
2022/04/12 14:05:34;;;;;;;;;;;21.30;85.80;;;;;;5078056;28;19942;-68
2022/04/12 14:08:00;;;;;;;;;;;21.20;85.50;;;;;;5084957;28;19943;-67
2022/04/12 14:10:29;;;;;;;;;;;21.10;85.80;;;;;;5085226;28;19921;-67
2022/04/12 14:12:55;;;;;;;;;;;21.00;86.50;;;;;;5085769;28;19927;-68
2022/04/12 14:15:22;;;;;;;;;;;21.00;85.00;;;;;;5084893;28;20208;-68
2022/04/12 14:17:49;;;;;;;;;;;21.00;85.20;;;;;;5085540;28;19956;-64
2022/04/12 14:20:15;;;;;;;;;;;21.00;86.10;;;;;;5085090;28;19920;-66
2022/04/12 14:22:42;;;;;;;;;;;21.10;88.30;;;;;;5085136;28;20204;-65
2022/04/12 14:25:10;;;;;;;;;;;21.30;86.30;;;;;;5085386;28;19928;-67
2022/04/12 14:27:38;;;;;;;;;;;21.50;85.50;;;;;;5084945;28;19920;-66